sensor_id;sensor_type;location;lat;lon;timestamp;P1;P2;P0
68341;PMS7003;55668;52.310;21.066;2023-04-27T00:11:44;7;6;
68341;PMS7003;55668;52.310;21.066;2023-04-27T00:27:04;4;4;
68341;PMS7003;55668;52.310;21.066;2023-04-27T00:43:01;4;4;
68341;PMS7003;55668;52.310;21.066;2023-04-27T01:12:18;4;4;
68341;PMS7003;55668;52.310;21.066;2023-04-27T01:29:10;4;4;
68341;PMS7003;55668;52.310;21.066;2023-04-27T01:46:04;5;5;
68341;PMS7003;55668;52.310;21.066;2023-04-27T01:58:52;5;5;
68341;PMS7003;55668;52.310;21.066;2023-04-27T02:15:39;5;5;
68341;PMS7003;55668;52.310;21.066;2023-04-27T02:44:22;6;6;
68341;PMS7003;55668;52.310;21.066;2023-04-27T02:59:47;5;5;
68341;PMS7003;55668;52.310;21.066;2023-04-27T03:16:03;5;5;
68341;PMS7003;55668;52.310;21.066;2023-04-27T03:47:08;5;5;
68341;PMS7003;55668;52.310;21.066;2023-04-27T04:02:05;7;7;
68341;PMS7003;55668;52.310;21.066;2023-04-27T04:16:40;6;6;
68341;PMS7003;55668;52.310;21.066;2023-04-27T04:32:19;7;7;
68341;PMS7003;55668;52.310;21.066;2023-04-27T04:49:10;9;7;
68341;PMS7003;55668;52.310;21.066;2023-04-27T05:03:31;7;7;
68341;PMS7003;55668;52.310;21.066;2023-04-27T05:19:50;7;7;
68341;PMS7003;55668;52.310;21.066;2023-04-27T05:33:28;6;6;
68341;PMS7003;55668;52.310;21.066;2023-04-27T05:50:07;5;5;
68341;PMS7003;55668;52.310;21.066;2023-04-27T06:05:01;10;9;
68341;PMS7003;55668;52.310;21.066;2023-04-27T06:19:31;8;8;
68341;PMS7003;55668;52.310;21.066;2023-04-27T06:35:20;7;7;
68341;PMS7003;55668;52.310;21.066;2023-04-27T06:52:08;8;8;
68341;PMS7003;55668;52.310;21.066;2023-04-27T07:06:12;9;9;
68341;PMS7003;55668;52.310;21.066;2023-04-27T07:21:24;7;6;
68341;PMS7003;55668;52.310;21.066;2023-04-27T07:36:13;10;9;
68341;PMS7003;55668;52.310;21.066;2023-04-27T07:51:29;7;7;
68341;PMS7003;55668;52.310;21.066;2023-04-27T08:07:53;6;6;
68341;PMS7003;55668;52.310;21.066;2023-04-27T08:38:09;5;5;
68341;PMS7003;55668;52.310;21.066;2023-04-27T08:53:32;6;6;
68341;PMS7003;55668;52.310;21.066;2023-04-27T09:08:23;5;5;
68341;PMS7003;55668;52.310;21.066;2023-04-27T09:39:44;5;5;
68341;PMS7003;55668;52.310;21.066;2023-04-27T09:56:10;4;4;
68341;PMS7003;55668;52.310;21.066;2023-04-27T10:25:52;3;3;
68341;PMS7003;55668;52.310;21.066;2023-04-27T10:57:13;3;3;
68341;PMS7003;55668;52.310;21.066;2023-04-27T11:11:50;3;3;
68341;PMS7003;55668;52.310;21.066;2023-04-27T11:26:51;2;2;
68341;PMS7003;55668;52.310;21.066;2023-04-27T11:57:09;4;4;
68341;PMS7003;55668;52.310;21.066;2023-04-27T12:12:38;4;4;
68341;PMS7003;55668;52.310;21.066;2023-04-27T12:28:54;3;3;
68341;PMS7003;55668;52.310;21.066;2023-04-27T12:45:44;3;3;
68341;PMS7003;55668;52.310;21.066;2023-04-27T13:14:28;2;2;
68341;PMS7003;55668;52.310;21.066;2023-04-27T13:29:49;2;2;
68341;PMS7003;55668;52.310;21.066;2023-04-27T14:01:39;3;3;
68341;PMS7003;55668;52.310;21.066;2023-04-27T14:15:28;3;3;
68341;PMS7003;55668;52.310;21.066;2023-04-27T14:30:47;2;2;
68341;PMS7003;55668;52.310;21.066;2023-04-27T15:16:48;2;2;
68341;PMS7003;55668;52.310;21.066;2023-04-27T15:32:20;1;1;
68341;PMS7003;55668;52.310;21.066;2023-04-27T16:04:53;2;2;
68341;PMS7003;55668;52.310;21.066;2023-04-27T16:33:46;2;2;
68341;PMS7003;55668;52.310;21.066;2023-04-27T17:20:27;2;2;
68341;PMS7003;55668;52.310;21.066;2023-04-27T17:53:29;4;4;
68341;PMS7003;55668;52.310;21.066;2023-04-27T18:06:31;3;3;
68341;PMS7003;55668;52.310;21.066;2023-04-27T18:21:05;4;4;
68341;PMS7003;55668;52.310;21.066;2023-04-27T18:37:39;3;3;
68341;PMS7003;55668;52.310;21.066;2023-04-27T18:52:00;4;4;
68341;PMS7003;55668;52.310;21.066;2023-04-27T19:07:14;5;5;
68341;PMS7003;55668;52.310;21.066;2023-04-27T19:23:43;3;3;
68341;PMS7003;55668;52.310;21.066;2023-04-27T19:40:06;4;4;
68341;PMS7003;55668;52.310;21.066;2023-04-27T19:53:46;4;4;
68341;PMS7003;55668;52.310;21.066;2023-04-27T20:09:53;3;3;
68341;PMS7003;55668;52.310;21.066;2023-04-27T20:24:14;3;3;
68341;PMS7003;55668;52.310;21.066;2023-04-27T20:55:32;6;6;
68341;PMS7003;55668;52.310;21.066;2023-04-27T21:09:57;5;5;
68341;PMS7003;55668;52.310;21.066;2023-04-27T21:26:09;6;6;
68341;PMS7003;55668;52.310;21.066;2023-04-27T21:40:38;6;6;
68341;PMS7003;55668;52.310;21.066;2023-04-27T21:56:25;6;6;
68341;PMS7003;55668;52.310;21.066;2023-04-27T22:11:43;9;9;
68341;PMS7003;55668;52.310;21.066;2023-04-27T22:27:19;9;9;
68341;PMS7003;55668;52.310;21.066;2023-04-27T22:42:57;8;8;
68341;PMS7003;55668;52.310;21.066;2023-04-27T22:59:08;9;9;
68341;PMS7003;55668;52.310;21.066;2023-04-27T23:30:33;10;10;
68341;PMS7003;55668;52.310;21.066;2023-04-27T23:44:55;11;11;
68341;PMS7003;55668;52.310;21.066;2023-04-27T23:59:55;11;11;
